• Join FlightAware (Why Join?)
  • Login
  • US Flag 
04:00PM EDT


 

Airport Tracker/Info


-or-


 

Live Flight TrackerFlight Track Log ✈ UAL582 ✈ 28-Oct-2013 ✈ CYYZ - KORD

Flight Track Log - Related Links

Times and Time Zones

All times are in EDT time to prevent confusion due to time zone crossing. See the UAL582 flight status page for this flight to view local times or setup timezone preferences in your user account.

Time Position Orientation Groundspeed Altitude Reporting Facility
EDT Latitude Longitude Course Direction KTS MPH feet Rate Location/Type
05:16PM 43.6833 -79.6167 257° West 110 127 1,500  Level Toronto Center
05:17PM 43.7333 -79.5667 36° Northeast 200 230 3,900 2,580 Climbing Toronto Center
05:18PM 43.7833 -79.6167 324° Northwest 270 311 6,700 3,120 Climbing Toronto Center
05:19PM 43.7833 -79.7000 270° West 260 299 10,200 3,000 Climbing Toronto Center
05:20PM 43.6021 -80.0827 270° West  Level Estimated
05:20PM 43.7833 -79.8167 270° West 320 368 12,800  Level Toronto Center
05:21PM 43.6327 -80.1907 291° West  Level FlightAware Approximate
05:21PM 43.7667 -79.9500 260° West 320 368 15,800  Level Toronto Center
05:22PM 43.6129 -80.3034 257° West  Level Estimated
05:22PM 43.7667 -80.0667 270° West 320 368 18,300  Level Toronto Center
05:23PM 43.7667 -80.2167 270° West 330 380 20,500 2,160 Climbing Toronto Center
05:24PM 43.7500 -80.3500 260° West 350 403 22,700 1,920 Climbing Toronto Center
05:25PM 43.7500 -80.4667 270° West 360 414 24,400 1,740 Climbing Toronto Center
05:26PM 43.7333 -80.6000 260° West 360 414 26,200 1,620 Climbing Toronto Center
05:27PM 43.7000 -80.7667 255° West 380 437 27,700 1,440 Climbing Toronto Center
05:28PM 43.6500 -80.9000 243° Southwest 380 437 29,100 1,260 Climbing Toronto Center
05:29PM 43.6167 -81.0333 251° West 390 449 30,300 1,260 Climbing Toronto Center
05:30PM 43.5833 -81.1833 253° West 400 460 31,700 1,440 Climbing Toronto Center
05:31PM 43.5667 -81.3167 260° West 390 449 33,200 1,320 Climbing Toronto Center
05:32PM 43.5333 -81.4667 253° West 390 449 34,400 1,020 Climbing Toronto Center
05:33PM 43.5000 -81.6167 253° West 390 449 35,300 780 Climbing Toronto Center
05:34PM 43.4667 -81.7667 253° West 400 460 36,000 300 Climbing Toronto Center
05:35PM 43.4333 -81.9000 251° West 390 449 36,000  Level Toronto Center
05:36PM 43.4000 -82.0500 253° West 400 460 36,000  Level Toronto Center
05:37PM 43.3667 -82.1833 251° West 400 460 36,000  Level Toronto Center
05:38PM 43.3333 -82.3333 253° West 390 449 36,000  Level Toronto Center
05:39PM 43.3000 -82.4667 251° West 390 449 36,000  Level Toronto Center
05:40PM 43.2667 -82.6167 253° West 390 449 36,000  Level Toronto Center
05:41PM 43.2167 -82.7667 245° Southwest 390 449 36,000  Level Toronto Center
05:42PM 43.2000 -82.8833 259° West 390 449 36,000  Level Toronto Center
05:44PM 43.2289 -83.0461 284° West 375 432 36,000 -180 Level Cleveland Center
05:45PM 43.2958 -83.1600 309° West 385 443 35,700 -720 Descending Cleveland Center
05:46PM 43.3317 -83.3217 287° West 371 427 34,600 -1,020 Descending Cleveland Center
05:47PM 43.3583 -83.4594 285° West 375 432 33,600 -1,020 Descending Cleveland Center
05:48PM 43.3489 -83.5986 265° West 379 436 32,600 -780 Descending Cleveland Center
05:49PM 43.2650 -83.6897 218° Southwest 397 457 32,000 -300 Descending Cleveland Center
05:50PM 43.1803 -83.7806 218° Southwest 398 458 32,000  Level Cleveland Center
05:51PM 43.1211 -83.9381 243° Southwest 391 450 32,000  Level Cleveland Center
05:52PM 43.0742 -84.0703 244° Southwest 389 448 32,000  Level Cleveland Center
05:53PM 43.0250 -84.2019 243° Southwest 391 450 32,000  Level Cleveland Center
05:54PM 42.9736 -84.3431 244° Southwest 389 448 32,000  Level Cleveland Center
05:59PM 42.8390 -85.0020 244° Southwest 100 115 32,000  Level FlightAware
06:00PM 42.8290 -85.1040 262° West 100 115 32,000  Level FlightAware
06:00PM 42.8270 -85.1240 262° West 100 115 32,000  Level FlightAware
06:01PM 42.8240 -85.1490 261° West 100 115 32,000 -1,560 Level FlightAware
06:02PM 42.7920 -85.4430 262° West 100 115 28,600 -1,560 Descending FlightAware
06:03PM 42.7890 -85.4680 261° West 100 115 28,600  Level FlightAware
06:04PM 42.7870 -85.4870 262° West 100 115 28,600 -3,240 Level FlightAware
06:05PM 42.7350 -85.7850 257° West 100 115 23,600 -2,820 Descending FlightAware
06:06PM 42.7310 -85.8100 258° West 100 115 23,600 -960 Level FlightAware
06:07PM 42.6710 -86.1290 256° West 353 406 21,400 -900 Descending FlightAware
06:08PM 42.6480 -86.2440 255° West 353 406 21,400 -780 Level FlightAware
06:09PM 42.6230 -86.3890 257° West 351 404 19,900 -1,740 Descending FlightAware
06:10PM 42.6050 -86.4840 256° West 351 404 18,800 -1,080 Descending FlightAware
06:10PM 42.5960 -86.5320 256° West 351 404 18,800  Level FlightAware
06:11PM 42.5830 -86.6030 256° West 351 404 18,800 -1,320 Level FlightAware
06:12PM 42.5570 -86.7360 255° West 351 404 16,800 -1,800 Descending FlightAware
06:12PM 42.5380 -86.8030 249° West 353 406 16,300 -720 Descending FlightAware
06:13PM 42.5110 -86.9140 252° West 357 411 15,800 -1,020 Descending FlightAware
06:14PM 42.4830 -87.0090 248° West 343 395 14,600 -1,200 Descending FlightAware
06:15PM 42.4460 -87.1440 250° West 335 386 13,500 -1,380 Descending FlightAware
06:16PM 42.4180 -87.2490 250° West 327 376 11,900 -1,620 Descending FlightAware
06:17PM 42.3880 -87.3550 249° West 326 375 10,600 -780 Descending FlightAware
06:17PM 42.3650 -87.4370 249° West 317 365 10,600  Level FlightAware
06:19PM 42.3190 -87.5550 242° Southwest 327 376 10,700 60 Climbing FlightAware
06:19PM 42.2860 -87.5900 218° Southwest 330 380 10,700 -120 Level FlightAware
06:20PM 42.2350 -87.6440 218° Southwest 347 399 10,600  Descending FlightAware
06:21PM 42.1720 -87.7090 217° Southwest 326 375 10,700 -300 Climbing FlightAware
06:21PM 42.1220 -87.7610 218° Southwest 316 364 10,200 -1,080 Descending FlightAware
06:22PM 42.1000 -87.9000 218° Southwest 268 308 8,800 -1,500 Descending Chicago TRACON
06:23PM 42.0833 -87.9833 255° West 265 305 7,300 -1,020 Descending Chicago TRACON
06:24PM 42.1000 -88.0833 283° West 223 257 6,800 -840 Descending Chicago TRACON
06:25PM 42.0906 -88.1694 262° West 226 260 5,500 -1,140 Descending Chicago Center
06:26PM 42.0906 -88.2492 270° West 217 250 4,400 -780 Descending Chicago Center
06:28PM 42.0897 -88.3317 269° West 218 251 4,000 -180 Descending Chicago Center
06:29PM 42.0669 -88.3794 237° Southwest 196 226 4,100  Climbing Chicago Center
06:30PM 42.0186 -88.3531 158° South 184 212 4,100  Level Chicago Center
06:31PM 42.0042 -88.2894 107° East 182 209 4,100  Level Chicago Center
06:32PM 41.9997 -88.2258 95° East 176 203 4,100  Level Chicago Center
06:33PM 42.0025 -88.1631 87° East 172 198 4,100 -300 Level Chicago Center
06:33PM 42.0000 -88.1167 94° East 166 191 3,600 -900 Descending Chicago TRACON
06:34PM 42.0000 -88.0500 90° East 157 181 2,700 -900 Descending Chicago TRACON
06:35PM 42.0000 -88.0000 90° East 126 145 1,900 -780 Descending Chicago TRACON
06:36PM 42.0000 -87.9667 90° East 121 139 1,200 -720 Descending Chicago TRACON